Maldives Meteorological Service

SYNOP

Station Code SYNOP
43555
AAXX 19154 43555 41457 70914 10278 20220 30116 40118 70522 82208 333 58009 82818 87275=
43533
AAXX 19154 43533 41456 71103 10271 20241 30116 40118 70522 83272 333 58009 83818 83362=
43577
AAXX 19154 43577 41458 60208 10280 20229 30112 40114 70522 82202 333 58006 82818 86077=
43588
AAXX 19154 43588 41457 70205 10280 20238 30108 40109 70522 82208 333 58004 82818 87276=
43599
AAXX 19154 43599 41456 70504 10286 20237 30108 40110 70522 82202 333 58001 82818 87076=
Last Updated : 2018-01-19 20:00:22